Flight Track Log - Related Links

Times and Time Zones

All times are in EDT time to prevent confusion due to time zone crossing. See the CSZ9546 flight status page for this flight to view local times or setup timezone preferences in your user account.

Time Position Orientation Groundspeed Altitude Reporting Facility
EDT Latitude Longitude Course Direction KTS MPH feet Rate Location/Type
Sun 12:19:00 PM 22.6446 110.4493 89° East  Level Estimated
Sun 12:20:00 PM 22.6455 110.5578 89° East  Level Estimated
Sun 12:21:00 PM 22.6464 110.6662 89° East  Level Estimated
Sun 12:22:00 PM 22.6472 110.7747 90° East  Level Estimated
Sun 12:23:00 PM 22.6479 110.8831 90° East  Level Estimated
Sun 12:24:00 PM 22.6485 110.9916 90° East  Level Estimated
Sun 12:25:00 PM 22.6491 111.1000 90° East  Level Estimated
Sun 12:26:00 PM 22.6496 111.2085 90° East  Level Estimated
Sun 12:27:00 PM 22.6500 111.3169 90° East  Level Estimated
Sun 12:28:00 PM 22.6504 111.4254 90° East  Level Estimated
Sun 12:29:00 PM 22.6506 111.5338 90° East  Level Estimated
Sun 12:30:00 PM 22.6508 111.6423 90° East  Level Estimated
Sun 12:31:00 PM 22.6509 111.7508 90° East  Level Estimated
Sun 12:32:00 PM 22.6510 111.8592 90° East  Level Estimated
Sun 12:33:00 PM 22.6510 111.9677 90° East  Level Estimated
Sun 12:34:00 PM 22.6509 112.0761 90° East  Level Estimated
Sun 12:35:00 PM 22.6507 112.1846 90° East  Level Estimated
Sun 12:36:00 PM 22.6505 112.2930 90° East  Level Estimated
Sun 12:37:00 PM 22.6502 112.4015 90° East  Level Estimated
Sun 12:38:00 PM 22.6498 112.5099 90° East  Level Estimated
Sun 12:39:00 PM 22.6493 112.6184 90° East  Level Estimated
Sun 12:40:00 PM 22.6488 112.7269 90° East  Level Estimated
Sun 12:41:00 PM 22.6482 112.8353 90° East  Level Estimated
Sun 12:42:00 PM 22.6475 112.9438 90° East  Level Estimated
Sun 12:43:00 PM 22.6468 113.0522 90° East  Level Estimated
Sun 12:44:00 PM 22.6460 113.1607 90° East  Level Estimated
Sun 12:45:00 PM 22.6451 113.2691 90° East  Level Estimated
Sun 12:46:00 PM 22.6441 113.3776 91° East  Level Estimated
Sun 12:47:00 PM 22.6430 113.4860 91° East  Level Estimated
Sun 12:48:00 PM 22.6419 113.5945 91° East  Level Estimated
Sun 12:49:00 PM 22.6407 113.7029 91° East  Level Estimated
Sun 12:50:00 PM 22.6395 113.8113 91° East  Level Estimated
Sun 12:51:00 PM 22.6395 113.8124 91° East  Level Estimated
Sun 12:52:00 PM 22.6395 113.8124 North  Level Estimated
Sun 12:53:00 PM 22.6395 113.8124 North  Level Estimated
Sun 12:54:00 PM 22.6395 113.8124 North  Level Estimated
Sun 12:55:00 PM 22.6395 113.8124 North  Level Estimated
Sun 12:56:00 PM 22.6395 113.8124 North  Level Estimated
Sun 12:57:00 PM 22.6395 113.8124 North  Level Estimated
Sun 12:58:00 PM 22.6395 113.8124 North  Level Estimated

Login

Don't have an account? Register now (free) for customized features, flight alerts, and more!